Main page
METAR-TAF:

METAR-TAF

Airports :

Beijing Capital International Airport

Beijing, China

latitude: 39-56N, longitude: 116-17E, elevation: 55 m

Current weather observation

The report was made 12 minutes ago, at 05:30 UTC
Wind 2 kt from variable directions
Temperature 2°C
Humidity 32%
Pressure 1033 hPa
Visibility 10 km or more
no clouds below 1500 m and no cumulonimbus

METAR: ZBAA 060530Z VRB01MPS CAVOK 02/M13 Q1033 NOSIG

Time: 13:42 (05:42 UTC)

Forecast

The report was made 2 hours and 22 minutes ago, at 03:20 UTC
Forecast valid from 06 at 06 UTC to 07 at 06 UTC
Wind 8 kt from the North/Northwest
Visibility 10 km or more
no clouds below 1500 m and no cumulonimbus

TAF: ZBAA 060320Z 0606/0706 34004MPS CAVOK TX04/0607Z TNM09/21Z

Weather observations and forecasts of more than 4000 airports (METAR and TAF reports).

The available stations are represented by yellow and red dots on the map.

Hover mouse over dot to see the name of the station.

Then click to see weather observations and forecasts.

To change the map : click on the green buttons with a black cross to zoom in, on the green button with a dash to zoom out, or on the green arrows for adjacent maps.


METAR-TAF: